»·PEaware :: N24W KDEN-KAPA

N24W :: KDEN-KAPA

FLIGHT INFORMATION

Flight Status: Arrived
Operator: Privately registered:
United States
More flights under this callsign
Pilot: Mark R. (11809)
Aircraft: BEECH AIRCRAFT A90-E90 KING AIR
(BE9L)
More flights by this aircraft type
Origin: KDEN Denver Intl
United States
Destination: KAPA Centennial
United States
More flights between these airports :: More routes between these airports
Route: FQF
File this flight plan on PilotEdge
Remarks:
Altitude:
(Current/Filed)
9,000ft
Speed:
(Current/Filed)
200kts
Departed: 02-May-18 10:45 AM
Arrived: 02-May-18 11:03 AM
Distance/Time
Traveled:
19nm/0:18
Distance/Time
To Go:
Arrived

Flight Plot

Page will automatically refresh every two minutes.

Flight plan parsing failed; only flown route is shown


Map Options




Map Legend


Flown Route
Filed Route
Departure Airport
Arrival Airport
Navaid (VOR, NDB)
Fix

Horizontal Profiles

Position Reports

Time Latitude Longitude Heading Altitude Ground
Speed
02-May-18 10:16 39.839577 -104.664330 91 5410ft 0kts
02-May-18 10:17 39.839577 -104.664330 91 5410ft 0kts
02-May-18 10:18 39.839577 -104.664330 91 5410ft 0kts
02-May-18 10:19 39.839577 -104.664330 91 5410ft 0kts
02-May-18 10:20 39.839577 -104.664330 91 5410ft 0kts
02-May-18 10:21 39.839577 -104.664330 91 5410ft 0kts
02-May-18 10:22 39.839577 -104.664330 91 5410ft 0kts
02-May-18 10:23 39.839577 -104.664330 91 5410ft 0kts
02-May-18 10:24 39.839577 -104.664330 91 5410ft 0kts
02-May-18 10:25 39.839577 -104.664330 91 5410ft 0kts
02-May-18 10:26 39.839577 -104.664330 91 5410ft 0kts
02-May-18 10:27 39.839577 -104.664330 91 5410ft 0kts
02-May-18 10:28 39.839577 -104.664330 91 5410ft 0kts
02-May-18 10:29 39.839577 -104.664330 91 5410ft 0kts
02-May-18 10:30 39.839577 -104.664330 91 5410ft 0kts
02-May-18 10:31 39.839577 -104.664330 91 5410ft 0kts
02-May-18 10:32 39.839577 -104.664330 91 5410ft 0kts
02-May-18 10:33 39.839903 -104.663703 47 5408ft 6kts
02-May-18 10:34 39.838608 -104.662534 180 5407ft 15kts
02-May-18 10:35 39.834567 -104.662583 181 5413ft 13kts
02-May-18 10:36 39.830660 -104.662638 180 5418ft 13kts
02-May-18 10:37 39.827765 -104.662698 92 5422ft 6kts
02-May-18 10:38 39.827792 -104.662570 54 5422ft 0kts
02-May-18 10:39 39.827792 -104.662570 54 5422ft 0kts
02-May-18 10:40 39.827792 -104.662570 54 5422ft 0kts
02-May-18 10:41 39.827792 -104.662570 54 5422ft 0kts
02-May-18 10:42 39.827965 -104.662513 7 5422ft 0kts
02-May-18 10:43 39.828271 -104.662359 45 5422ft 5kts
02-May-18 10:44 39.829033 -104.660538 0 5420ft 18kts
02-May-18 10:44 39.849872 -104.660456 2 5966ft 124kts
02-May-18 10:46 39.844837 -104.622694 146 7739ft 148kts
02-May-18 10:47 39.808299 -104.592685 146 8971ft 165kts
02-May-18 10:48 39.760172 -104.608541 207 9003ft 206kts
02-May-18 10:49 39.708348 -104.644054 207 9001ft 213kts
02-May-18 10:50 39.656364 -104.679675 207 8999ft 210kts
02-May-18 10:51 39.604860 -104.714965 207 9001ft 208kts
02-May-18 10:51 39.562303 -104.744115 207 8999ft 208kts
02-May-18 10:52 39.509270 -104.751563 180 9039ft 168kts
02-May-18 10:53 39.464885 -104.753072 180 9000ft 157kts
02-May-18 10:54 39.421174 -104.754639 180 8999ft 157kts
02-May-18 10:55 39.377279 -104.756181 180 9000ft 159kts
02-May-18 10:56 39.359324 -104.798684 270 9001ft 159kts
02-May-18 10:57 39.388116 -104.836644 341 8160ft 162kts
02-May-18 10:58 39.428244 -104.843992 358 8001ft 142kts
02-May-18 10:59 39.466549 -104.846022 359 7608ft 128kts
02-May-18 11:00 39.502302 -104.847688 359 6940ft 131kts
02-May-18 11:01 39.537868 -104.849322 359 6262ft 114kts
02-May-18 11:02 39.563680 -104.850519 357 5851ft 35kts
02-May-18 11:03 39.566056 -104.849597 89 5844ft 0kts
02-May-18 11:04 39.568141 -104.849308 359 5838ft 22kts
02-May-18 11:05 39.573449 -104.849411 34 5824ft 6kts
02-May-18 11:06 39.575797 -104.846369 79 5821ft 10kts
02-May-18 11:07 39.575456 -104.845968 272 5822ft 0kts

Navigation Log

Ident Type
Flight plan parsing failed, navigation log unavailable